createdAt,value
2023-03-15T00:00:06.545Z,99.90
2023-03-15T00:02:33.173Z,99.90
2023-03-15T00:04:59.711Z,99.90
2023-03-15T00:07:26.303Z,99.90
2023-03-15T00:09:53.480Z,99.90
2023-03-15T00:12:20.112Z,99.90
2023-03-15T00:14:46.709Z,99.90
2023-03-15T00:17:13.275Z,99.90
2023-03-15T00:19:39.888Z,99.90
2023-03-15T00:22:06.514Z,99.90
2023-03-15T00:24:33.067Z,99.90
2023-03-15T00:26:59.657Z,99.90
2023-03-15T00:29:26.228Z,99.90
2023-03-15T00:31:52.780Z,99.90
2023-03-15T00:34:19.324Z,99.90
2023-03-15T00:36:46.048Z,99.90
2023-03-15T00:39:12.626Z,99.90
2023-03-15T00:41:39.191Z,99.90
2023-03-15T00:44:05.778Z,99.90
2023-03-15T00:46:32.352Z,99.90
2023-03-15T00:48:58.977Z,99.90
2023-03-15T00:51:25.528Z,99.90
2023-03-15T00:53:53.368Z,99.90
2023-03-15T00:56:25.571Z,99.90
2023-03-15T00:58:52.919Z,99.90
2023-03-15T01:01:22.859Z,99.90
2023-03-15T01:03:49.502Z,99.90
2023-03-15T01:06:22.310Z,99.90
2023-03-15T01:08:49.434Z,99.90
2023-03-15T01:11:19.609Z,99.90
2023-03-15T01:13:47.069Z,99.90
2023-03-15T01:16:14.961Z,99.90
2023-03-15T01:18:43.154Z,99.90
2023-03-15T01:21:11.618Z,99.90
2023-03-15T01:23:38.346Z,99.90
2023-03-15T01:26:07.275Z,99.90
2023-03-15T01:28:34.045Z,99.90
2023-03-15T01:31:00.731Z,99.90
2023-03-15T01:33:27.670Z,99.90
2023-03-15T01:36:07.627Z,99.90
2023-03-15T01:38:34.323Z,99.90
2023-03-15T01:41:01.232Z,99.90
2023-03-15T01:43:30.588Z,99.90
2023-03-15T01:45:57.057Z,99.90
2023-03-15T01:48:27.698Z,99.90
2023-03-15T01:50:55.306Z,99.90
2023-03-15T01:53:25.567Z,99.90
2023-03-15T01:55:53.434Z,99.90
2023-03-15T01:58:24.022Z,99.90
2023-03-15T02:00:52.235Z,99.90
2023-03-15T02:03:24.580Z,99.90
2023-03-15T02:05:58.739Z,99.90
2023-03-15T02:08:28.924Z,99.90
2023-03-15T02:10:57.644Z,99.90
2023-03-15T02:13:26.342Z,99.90
2023-03-15T02:15:53.694Z,99.90
2023-03-15T02:18:20.766Z,99.90
2023-03-15T02:20:59.637Z,99.90
2023-03-15T02:23:26.961Z,99.90
2023-03-15T02:26:17.910Z,99.90
2023-03-15T02:28:45.741Z,99.90
2023-03-15T02:31:12.407Z,99.90
2023-03-15T02:33:42.447Z,99.90
2023-03-15T02:36:22.024Z,99.90
2023-03-15T02:38:49.667Z,99.90
2023-03-15T02:41:24.421Z,99.90
2023-03-15T02:43:55.132Z,99.90
2023-03-15T02:46:22.492Z,99.90
2023-03-15T02:48:50.568Z,99.90
2023-03-15T02:51:20.934Z,99.90
2023-03-15T02:53:47.910Z,99.90
2023-03-15T02:56:15.432Z,99.90
2023-03-15T02:58:42.999Z,99.90
2023-03-15T03:01:09.574Z,99.90
2023-03-15T03:03:36.174Z,99.90
2023-03-15T03:06:02.740Z,99.90
2023-03-15T03:08:29.302Z,99.90
2023-03-15T03:10:55.849Z,99.90
2023-03-15T03:13:22.462Z,99.90
2023-03-15T03:15:50.208Z,99.90
2023-03-15T03:18:16.727Z,99.90
2023-03-15T03:20:43.267Z,99.90
2023-03-15T03:23:09.784Z,99.90
2023-03-15T03:25:36.321Z,99.90
2023-03-15T03:28:02.877Z,99.90
2023-03-15T03:30:29.575Z,99.90
2023-03-15T03:32:56.229Z,99.90
2023-03-15T03:35:22.895Z,99.90
2023-03-15T03:37:49.487Z,99.90
2023-03-15T03:40:16.088Z,99.90
2023-03-15T03:42:42.682Z,99.90
2023-03-15T03:45:09.657Z,99.90
2023-03-15T03:47:36.305Z,99.90
2023-03-15T03:50:03.161Z,99.90
2023-03-15T03:52:29.766Z,99.90
2023-03-15T03:54:56.393Z,99.90
2023-03-15T03:57:22.976Z,99.90
2023-03-15T03:59:49.518Z,99.90
2023-03-15T04:02:16.130Z,99.90
2023-03-15T04:04:42.758Z,99.90
2023-03-15T04:07:09.362Z,99.90
2023-03-15T04:09:35.922Z,99.90
2023-03-15T04:12:02.718Z,99.90
2023-03-15T04:14:29.416Z,99.90
2023-03-15T04:16:55.958Z,99.90
2023-03-15T04:19:22.538Z,99.90
2023-03-15T04:21:49.120Z,99.90
2023-03-15T04:24:15.667Z,99.90
2023-03-15T04:26:42.245Z,99.90
2023-03-15T04:29:10.359Z,99.90
2023-03-15T04:31:36.968Z,99.90
2023-03-15T04:34:04.682Z,99.90
2023-03-15T04:36:31.259Z,99.90
2023-03-15T04:38:57.789Z,99.90
2023-03-15T04:41:24.373Z,99.90
2023-03-15T04:43:50.930Z,99.90
2023-03-15T04:46:17.519Z,99.90
2023-03-15T04:48:44.141Z,99.90
2023-03-15T04:51:10.704Z,99.90
2023-03-15T04:53:37.284Z,99.90
2023-03-15T04:56:04.832Z,99.90
2023-03-15T04:58:31.607Z,99.90
2023-03-15T05:00:58.210Z,99.90
2023-03-15T05:03:24.804Z,99.90
2023-03-15T05:05:51.336Z,99.90
2023-03-15T05:08:17.929Z,99.90
2023-03-15T05:10:44.488Z,99.90
2023-03-15T05:13:11.024Z,99.90
2023-03-15T05:15:37.565Z,99.90
2023-03-15T05:18:04.208Z,99.90
2023-03-15T05:20:30.826Z,99.90
2023-03-15T05:22:57.351Z,99.90
2023-03-15T05:25:23.961Z,99.90
2023-03-15T05:27:50.692Z,99.90
2023-03-15T05:30:17.363Z,99.90
2023-03-15T05:32:43.944Z,99.90
2023-03-15T05:35:11.814Z,99.90
2023-03-15T05:37:38.758Z,99.90
2023-03-15T05:40:06.147Z,99.90
2023-03-15T05:42:32.654Z,99.90
2023-03-15T05:44:59.287Z,99.90
2023-03-15T05:47:25.896Z,99.90
2023-03-15T05:49:52.492Z,99.90
2023-03-15T05:52:19.069Z,99.90
2023-03-15T05:54:45.645Z,99.90
2023-03-15T05:57:12.202Z,99.90
2023-03-15T05:59:38.748Z,99.90
2023-03-15T06:02:05.410Z,99.90
2023-03-15T06:04:32.056Z,99.90
2023-03-15T06:06:58.715Z,99.90
2023-03-15T06:09:25.388Z,99.90
2023-03-15T06:11:51.924Z,99.90
2023-03-15T06:14:18.609Z,99.90
2023-03-15T06:16:45.196Z,99.90
2023-03-15T06:19:11.789Z,99.90
2023-03-15T06:21:38.372Z,99.90
2023-03-15T06:24:05.292Z,99.90
2023-03-15T06:26:31.852Z,99.90
2023-03-15T06:28:58.393Z,99.90
2023-03-15T06:31:25.021Z,99.90
2023-03-15T06:33:51.593Z,99.90
2023-03-15T06:36:18.162Z,99.90
2023-03-15T06:38:44.711Z,99.90
2023-03-15T06:41:11.339Z,99.90
2023-03-15T06:43:38.121Z,99.90
2023-03-15T06:46:04.869Z,99.90
2023-03-15T06:48:31.461Z,99.90
2023-03-15T06:50:58.020Z,99.90
2023-03-15T06:53:24.685Z,99.90
2023-03-15T06:55:51.326Z,99.90
2023-03-15T06:58:17.989Z,99.90
2023-03-15T07:00:44.730Z,99.90
2023-03-15T07:03:11.315Z,99.90
2023-03-15T07:05:37.961Z,99.90
2023-03-15T07:08:04.775Z,99.90
2023-03-15T07:10:31.437Z,99.90
2023-03-15T07:12:57.998Z,99.90
2023-03-15T07:15:24.612Z,99.90
2023-03-15T07:17:51.164Z,99.90
2023-03-15T07:20:17.850Z,99.90
2023-03-15T07:22:44.440Z,99.90
2023-03-15T07:25:11.297Z,99.90
2023-03-15T07:27:37.824Z,99.90
2023-03-15T07:30:05.213Z,99.90
2023-03-15T07:32:31.850Z,99.90
2023-03-15T07:34:58.485Z,99.90
2023-03-15T07:37:25.309Z,99.90
2023-03-15T07:39:51.861Z,99.90
2023-03-15T07:42:18.501Z,99.90
2023-03-15T07:44:45.067Z,99.90
2023-03-15T07:47:11.629Z,99.90
2023-03-15T07:49:38.196Z,99.90
2023-03-15T07:52:04.913Z,99.90
2023-03-15T07:54:31.506Z,99.90
2023-03-15T07:56:58.053Z,99.90
2023-03-15T07:59:24.703Z,99.90
2023-03-15T08:01:51.316Z,99.90
2023-03-15T08:04:17.881Z,99.90
2023-03-15T08:06:44.456Z,99.90
2023-03-15T08:09:10.986Z,99.90
2023-03-15T08:11:37.709Z,99.90
2023-03-15T08:14:04.315Z,99.90
2023-03-15T08:16:30.948Z,99.90
2023-03-15T08:18:57.517Z,99.90
2023-03-15T08:21:24.071Z,99.90
2023-03-15T08:23:50.603Z,99.90
2023-03-15T08:26:17.146Z,99.90
2023-03-15T08:28:43.792Z,99.90
2023-03-15T08:31:10.366Z,99.90
2023-03-15T08:33:37.020Z,99.90
2023-03-15T08:36:03.834Z,99.90
2023-03-15T08:38:30.417Z,99.90
2023-03-15T08:40:57.817Z,99.90
2023-03-15T08:43:24.536Z,99.90
2023-03-15T08:46:00.750Z,99.90
2023-03-15T08:48:28.384Z,99.90
2023-03-15T08:50:55.000Z,99.90
2023-03-15T08:53:21.615Z,99.90
2023-03-15T08:55:48.626Z,99.90
2023-03-15T08:58:15.170Z,99.90
2023-03-15T09:00:41.721Z,99.90
2023-03-15T09:03:08.343Z,99.90
2023-03-15T09:05:35.910Z,99.90
2023-03-15T09:08:02.583Z,99.90
2023-03-15T09:10:29.286Z,99.90
2023-03-15T09:12:55.943Z,99.90
2023-03-15T09:15:22.505Z,99.90
2023-03-15T09:17:50.326Z,99.90
2023-03-15T09:20:17.075Z,99.90
2023-03-15T09:22:49.450Z,99.90
2023-03-15T09:25:16.072Z,99.90
2023-03-15T09:27:42.639Z,99.90
2023-03-15T09:30:10.059Z,99.90
2023-03-15T09:32:36.927Z,99.90
2023-03-15T09:35:05.291Z,99.90
2023-03-15T09:37:32.285Z,99.90
2023-03-15T09:39:59.035Z,99.90
2023-03-15T09:42:49.198Z,99.90
2023-03-15T09:45:39.385Z,99.90
2023-03-15T09:48:12.894Z,99.90
2023-03-15T09:50:48.320Z,99.90
2023-03-15T09:53:26.694Z,99.90
2023-03-15T09:55:53.626Z,99.90
2023-03-15T09:58:30.200Z,99.90
2023-03-15T10:01:08.599Z,99.90
2023-03-15T10:03:52.466Z,99.90
2023-03-15T10:06:21.877Z,99.90
2023-03-15T10:08:54.501Z,99.90
2023-03-15T10:11:34.651Z,99.90
2023-03-15T10:14:39.602Z,99.90
2023-03-15T10:17:12.607Z,99.90
2023-03-15T10:19:48.947Z,99.90
2023-03-15T10:22:31.813Z,99.90
2023-03-15T10:25:19.565Z,99.90
2023-03-15T10:28:03.848Z,99.90
2023-03-15T10:30:32.810Z,99.90
2023-03-15T10:33:22.611Z,99.90
2023-03-15T10:35:51.036Z,99.90
2023-03-15T10:38:21.289Z,99.90
2023-03-15T10:40:53.704Z,99.90
2023-03-15T10:43:30.794Z,99.90
2023-03-15T10:46:01.956Z,99.90
2023-03-15T10:48:30.526Z,99.90
2023-03-15T10:50:59.170Z,99.90
2023-03-15T10:53:25.979Z,99.90
2023-03-15T10:56:06.328Z,99.90
2023-03-15T10:58:53.099Z,99.90
2023-03-15T11:01:31.145Z,99.70
2023-03-15T11:04:12.475Z,97.40
2023-03-15T11:06:45.667Z,99.10
2023-03-15T11:09:18.197Z,96.40
2023-03-15T11:12:01.122Z,93.00
2023-03-15T11:14:35.540Z,92.10
2023-03-15T11:17:04.307Z,90.90
2023-03-15T11:19:35.921Z,93.20
2023-03-15T11:22:02.841Z,92.00
2023-03-15T11:24:32.889Z,93.00
2023-03-15T11:27:02.767Z,92.60
2023-03-15T11:29:35.240Z,91.80
2023-03-15T11:32:11.999Z,89.70
2023-03-15T11:34:55.973Z,91.40
2023-03-15T11:37:28.242Z,93.10
2023-03-15T11:40:05.107Z,91.80
2023-03-15T11:42:50.730Z,90.70
2023-03-15T11:45:29.319Z,90.40
2023-03-15T11:48:05.293Z,92.70
2023-03-15T11:50:31.855Z,91.10
2023-03-15T11:53:00.188Z,91.10
2023-03-15T11:55:28.258Z,87.50
2023-03-15T11:57:56.013Z,90.20
2023-03-15T12:00:31.452Z,90.80
2023-03-15T12:03:00.402Z,92.80
2023-03-15T12:05:50.493Z,92.10
2023-03-15T12:08:24.264Z,91.10
2023-03-15T12:10:51.602Z,91.50
2023-03-15T12:13:30.507Z,93.90
2023-03-15T12:15:57.980Z,93.00
2023-03-15T12:18:42.206Z,93.10
2023-03-15T12:21:20.850Z,93.00
2023-03-15T12:24:00.018Z,92.20
2023-03-15T12:26:35.138Z,92.10
2023-03-15T12:29:07.138Z,91.90
2023-03-15T12:31:49.319Z,92.30
2023-03-15T12:34:46.493Z,93.70
2023-03-15T12:37:37.429Z,93.20
2023-03-15T12:40:15.890Z,91.30
2023-03-15T12:42:42.408Z,87.60
2023-03-15T12:45:18.141Z,92.10
2023-03-15T12:47:50.632Z,91.10
2023-03-15T12:50:45.146Z,90.50
2023-03-15T12:53:36.465Z,88.00
2023-03-15T12:56:24.994Z,87.60
2023-03-15T12:58:59.273Z,87.80
2023-03-15T13:01:26.304Z,89.20
2023-03-15T13:03:57.990Z,89.40
2023-03-15T13:06:52.026Z,90.30
2023-03-15T13:09:42.894Z,91.00
2023-03-15T13:12:29.139Z,91.20
2023-03-15T13:15:20.394Z,90.90
2023-03-15T13:17:58.292Z,91.60
2023-03-15T13:20:31.817Z,92.30
2023-03-15T13:23:17.589Z,91.60
2023-03-15T13:26:09.264Z,93.20
2023-03-15T13:28:41.944Z,92.70
2023-03-15T13:31:21.287Z,93.80
2023-03-15T13:33:53.562Z,92.60
2023-03-15T13:36:20.110Z,92.00
2023-03-15T13:38:50.746Z,90.70
2023-03-15T13:41:27.602Z,91.40
2023-03-15T13:43:56.873Z,92.70
2023-03-15T13:46:26.427Z,92.10
2023-03-15T13:48:54.636Z,91.20
2023-03-15T13:51:24.206Z,91.10
2023-03-15T13:54:05.831Z,91.20
2023-03-15T13:56:48.957Z,91.50
2023-03-15T13:59:17.883Z,92.10
2023-03-15T14:01:44.571Z,91.90
2023-03-15T14:04:17.489Z,91.90
2023-03-15T14:06:44.979Z,92.50
2023-03-15T14:09:22.572Z,93.70
2023-03-15T14:12:05.143Z,91.90
2023-03-15T14:14:35.720Z,90.20
2023-03-15T14:17:27.656Z,90.30
2023-03-15T14:19:56.664Z,88.20
2023-03-15T14:22:23.916Z,90.10
2023-03-15T14:24:52.192Z,90.40
2023-03-15T14:27:26.195Z,91.00
2023-03-15T14:29:56.300Z,92.00
2023-03-15T14:32:38.419Z,91.80
2023-03-15T14:35:24.717Z,89.00
2023-03-15T14:38:25.232Z,88.10
2023-03-15T14:40:53.376Z,89.00
2023-03-15T14:43:19.968Z,90.20
2023-03-15T14:45:48.742Z,91.30
2023-03-15T14:48:26.713Z,90.80
2023-03-15T14:50:53.427Z,91.40
2023-03-15T14:53:22.409Z,91.60
2023-03-15T14:55:49.159Z,91.20
2023-03-15T14:58:24.478Z,91.60
2023-03-15T15:00:54.288Z,90.00
2023-03-15T15:03:35.481Z,91.30
2023-03-15T15:06:02.719Z,92.00
2023-03-15T15:08:32.110Z,91.60
2023-03-15T15:10:59.079Z,90.60
2023-03-15T15:13:30.462Z,92.60
2023-03-15T15:15:57.630Z,92.80
2023-03-15T15:18:26.141Z,92.80
2023-03-15T15:20:54.075Z,93.30
2023-03-15T15:23:24.361Z,92.60
2023-03-15T15:25:53.122Z,93.40
2023-03-15T15:28:33.210Z,97.20
2023-03-15T15:31:01.049Z,99.10
2023-03-15T15:33:27.640Z,99.90
2023-03-15T15:35:56.175Z,99.90
2023-03-15T15:38:27.197Z,99.90
2023-03-15T15:40:53.780Z,99.90
2023-03-15T15:43:20.342Z,99.90
2023-03-15T15:45:46.906Z,99.90
2023-03-15T15:48:13.515Z,99.90
2023-03-15T15:50:40.088Z,99.90
2023-03-15T15:53:06.760Z,99.90
2023-03-15T15:55:36.039Z,99.90
2023-03-15T15:58:04.550Z,99.90
2023-03-15T16:00:31.370Z,99.90
2023-03-15T16:02:58.721Z,99.90
2023-03-15T16:05:28.665Z,99.90
2023-03-15T16:07:57.600Z,99.90
2023-03-15T16:10:26.682Z,99.90
2023-03-15T16:12:54.849Z,99.90
2023-03-15T16:15:21.828Z,99.90
2023-03-15T16:17:48.742Z,99.90
2023-03-15T16:20:16.733Z,99.90
2023-03-15T16:22:47.625Z,99.90
2023-03-15T16:25:25.706Z,99.90
2023-03-15T16:27:54.121Z,99.90
2023-03-15T16:30:23.826Z,99.90
2023-03-15T16:32:50.729Z,99.90
2023-03-15T16:35:17.301Z,99.90
2023-03-15T16:37:45.365Z,99.90
2023-03-15T16:40:24.735Z,99.90
2023-03-15T16:42:51.328Z,99.90
2023-03-15T16:45:17.969Z,99.90
2023-03-15T16:47:44.553Z,99.90
2023-03-15T16:50:11.916Z,99.90
2023-03-15T16:52:40.410Z,99.90
2023-03-15T16:55:07.560Z,99.90
2023-03-15T16:57:34.108Z,99.90
2023-03-15T17:00:01.408Z,99.90
2023-03-15T17:02:29.165Z,99.90
2023-03-15T17:04:55.828Z,99.90
2023-03-15T17:07:28.737Z,99.90
2023-03-15T17:09:55.590Z,99.90
2023-03-15T17:12:27.167Z,99.90
2023-03-15T17:14:57.716Z,99.90
2023-03-15T17:17:27.480Z,99.90
2023-03-15T17:19:54.107Z,99.90
2023-03-15T17:22:21.233Z,99.90
2023-03-15T17:24:48.882Z,99.90
2023-03-15T17:27:31.626Z,99.90
2023-03-15T17:29:58.339Z,99.90
2023-03-15T17:32:24.973Z,99.90
2023-03-15T17:34:51.575Z,99.90
2023-03-15T17:37:18.685Z,99.90
2023-03-15T17:39:45.430Z,99.90
2023-03-15T17:42:15.619Z,99.90
2023-03-15T17:44:42.305Z,99.90
2023-03-15T17:47:12.431Z,99.90
2023-03-15T17:49:39.075Z,99.90
2023-03-15T17:52:14.751Z,99.90
2023-03-15T17:54:41.483Z,99.90
2023-03-15T17:57:10.007Z,99.90
2023-03-15T17:59:36.526Z,99.90
2023-03-15T18:02:03.088Z,99.90
2023-03-15T18:04:29.658Z,99.90
2023-03-15T18:06:56.209Z,99.90
2023-03-15T18:09:22.752Z,99.90
2023-03-15T18:11:49.596Z,99.90
2023-03-15T18:14:16.290Z,99.90
2023-03-15T18:16:43.572Z,99.90
2023-03-15T18:19:10.163Z,99.90
2023-03-15T18:21:36.997Z,99.90
2023-03-15T18:24:03.712Z,99.90
2023-03-15T18:26:30.275Z,99.90
2023-03-15T18:28:56.828Z,99.90
2023-03-15T18:31:25.734Z,99.90
2023-03-15T18:33:53.212Z,99.90
2023-03-15T18:36:20.249Z,99.90
2023-03-15T18:38:46.938Z,99.90
2023-03-15T18:41:20.680Z,99.90
2023-03-15T18:43:48.367Z,99.90
2023-03-15T18:46:25.249Z,99.90
2023-03-15T18:48:53.056Z,99.90
2023-03-15T18:51:21.441Z,99.90
2023-03-15T18:53:48.046Z,99.90
2023-03-15T18:56:34.849Z,99.90
2023-03-15T18:59:02.181Z,99.90
2023-03-15T19:01:28.974Z,99.90
2023-03-15T19:03:55.622Z,99.90
2023-03-15T19:06:22.473Z,99.90
2023-03-15T19:08:49.433Z,99.90
2023-03-15T19:11:16.011Z,99.90
2023-03-15T19:13:42.584Z,99.90
2023-03-15T19:16:09.168Z,99.90
2023-03-15T19:18:35.764Z,99.90
2023-03-15T19:21:02.293Z,99.90
2023-03-15T19:23:28.847Z,99.90
2023-03-15T19:25:55.455Z,99.90
2023-03-15T19:28:22.097Z,99.90
2023-03-15T19:30:49.179Z,99.90
2023-03-15T19:33:16.384Z,99.90
2023-03-15T19:35:42.948Z,99.90
2023-03-15T19:38:09.528Z,99.90
2023-03-15T19:40:37.101Z,99.90
2023-03-15T19:43:03.791Z,99.90
2023-03-15T19:45:30.337Z,99.90
2023-03-15T19:47:57.103Z,99.90
2023-03-15T19:50:23.854Z,99.90
2023-03-15T19:52:50.405Z,99.90
2023-03-15T19:55:19.044Z,99.90
2023-03-15T19:57:46.062Z,99.90
2023-03-15T20:00:15.151Z,99.90
2023-03-15T20:02:42.518Z,99.90
2023-03-15T20:05:11.884Z,99.90
2023-03-15T20:07:38.692Z,99.90
2023-03-15T20:10:06.786Z,99.90
2023-03-15T20:12:33.373Z,99.90
2023-03-15T20:14:59.925Z,99.90
2023-03-15T20:17:26.483Z,99.90
2023-03-15T20:19:53.206Z,99.90
2023-03-15T20:22:19.785Z,99.90
2023-03-15T20:24:46.410Z,99.90
2023-03-15T20:27:12.972Z,99.90
2023-03-15T20:29:39.554Z,99.90
2023-03-15T20:32:06.267Z,99.90
2023-03-15T20:34:32.818Z,99.90
2023-03-15T20:36:59.841Z,99.90
2023-03-15T20:39:26.455Z,99.90
2023-03-15T20:41:53.014Z,99.90
2023-03-15T20:44:19.606Z,99.90
2023-03-15T20:46:46.281Z,99.90
2023-03-15T20:49:12.954Z,99.90
2023-03-15T20:51:39.528Z,99.90
2023-03-15T20:54:06.153Z,99.90
2023-03-15T20:56:32.681Z,99.90
2023-03-15T20:58:59.268Z,99.90
2023-03-15T21:01:25.833Z,99.90
2023-03-15T21:03:52.492Z,99.90
2023-03-15T21:06:19.078Z,99.90
2023-03-15T21:08:45.632Z,99.90
2023-03-15T21:11:12.240Z,99.90
2023-03-15T21:13:38.832Z,99.90
2023-03-15T21:16:05.676Z,99.90
2023-03-15T21:18:33.158Z,99.90
2023-03-15T21:21:02.309Z,99.90
2023-03-15T21:23:30.789Z,99.90
2023-03-15T21:25:59.330Z,99.90
2023-03-15T21:28:26.155Z,99.90
2023-03-15T21:30:53.900Z,99.90
2023-03-15T21:33:26.087Z,99.90
2023-03-15T21:35:53.154Z,99.90
2023-03-15T21:38:19.972Z,99.90
2023-03-15T21:40:48.508Z,99.90
2023-03-15T21:43:15.024Z,99.90
2023-03-15T21:45:41.674Z,99.90
2023-03-15T21:48:08.346Z,99.90
2023-03-15T21:50:35.338Z,99.90
2023-03-15T21:53:02.104Z,99.90
2023-03-15T21:55:28.728Z,99.90
2023-03-15T21:57:55.276Z,99.90
2023-03-15T22:00:22.379Z,99.90
2023-03-15T22:02:49.076Z,99.90
2023-03-15T22:05:15.888Z,99.90
2023-03-15T22:07:43.010Z,99.90
2023-03-15T22:10:10.709Z,99.90
2023-03-15T22:12:38.115Z,99.90
2023-03-15T22:15:06.499Z,99.90
2023-03-15T22:17:33.732Z,99.90
2023-03-15T22:20:00.348Z,99.90
2023-03-15T22:22:26.923Z,99.90
2023-03-15T22:24:53.485Z,99.90
2023-03-15T22:27:20.039Z,99.90
2023-03-15T22:29:46.596Z,99.90
2023-03-15T22:32:14.008Z,99.90
2023-03-15T22:34:40.604Z,99.90
2023-03-15T22:37:07.258Z,99.90
2023-03-15T22:39:33.835Z,99.90
2023-03-15T22:42:00.386Z,99.90
2023-03-15T22:44:28.421Z,99.90
2023-03-15T22:46:56.665Z,99.90
2023-03-15T22:49:23.240Z,99.90
2023-03-15T22:51:49.872Z,99.90
2023-03-15T22:54:16.427Z,99.90
2023-03-15T22:56:43.007Z,99.90
2023-03-15T22:59:10.225Z,99.90
2023-03-15T23:01:36.858Z,99.90
2023-03-15T23:04:03.475Z,99.90
2023-03-15T23:06:30.052Z,99.90
2023-03-15T23:08:56.603Z,99.90
2023-03-15T23:11:23.172Z,99.90
2023-03-15T23:13:49.758Z,99.90
2023-03-15T23:16:17.192Z,99.90
2023-03-15T23:18:43.838Z,99.90
2023-03-15T23:21:14.036Z,99.90
2023-03-15T23:23:41.128Z,99.90
2023-03-15T23:26:07.720Z,99.90
2023-03-15T23:28:34.704Z,99.90
2023-03-15T23:31:03.520Z,99.90
2023-03-15T23:33:30.291Z,99.90
2023-03-15T23:35:56.922Z,99.90
2023-03-15T23:38:23.481Z,99.90
2023-03-15T23:40:58.007Z,99.90
2023-03-15T23:43:24.750Z,99.90
2023-03-15T23:45:58.470Z,99.90
2023-03-15T23:48:25.286Z,99.90
2023-03-15T23:50:56.531Z,99.90
2023-03-15T23:53:24.306Z,99.90
2023-03-15T23:55:51.447Z,99.90
2023-03-15T23:58:18.364Z,99.90
